Time;durP1;ratioP1;P1;durP2;ratioP2;P2;SDS_P1;SDS_P2;PMS_P1;PMS_P2;Temp;Humidity;BMP_temperature;BMP_pressure;BME280_temperature;BME280_humidity;BME280_pressure;Samples;Min_cycle;Max_cycle;Signal;HPM_P1;HPM_P2
2022/07/23 00:00:07;;;;;;;9.23;7.90;;;24.60;99.90;;;;;;5066244;28;20446;-68
2022/07/23 00:02:34;;;;;;;8.03;7.23;;;24.70;99.90;;;;;;5066961;28;20443;-68
2022/07/23 00:05:00;;;;;;;7.73;6.80;;;24.70;99.90;;;;;;5066336;28;20992;-68
2022/07/23 00:07:27;;;;;;;7.47;6.77;;;24.80;99.90;;;;;;5066400;28;20442;-69
2022/07/23 00:09:55;;;;;;;7.53;6.83;;;24.80;99.90;;;;;;5065709;28;21135;-69
2022/07/23 00:12:23;;;;;;;7.73;7.03;;;24.80;99.90;;;;;;5066170;28;21394;-68
2022/07/23 00:14:49;;;;;;;9.30;6.47;;;24.80;99.90;;;;;;5070354;28;20835;-69
2022/07/23 00:17:16;;;;;;;6.40;5.80;;;24.90;99.90;;;;;;5070332;28;20483;-69
2022/07/23 00:19:43;;;;;;;10.83;5.30;;;24.90;99.90;;;;;;5070345;28;20493;-67
2022/07/23 00:22:10;;;;;;;6.33;5.40;;;24.80;99.90;;;;;;5069534;28;20462;-66
2022/07/23 00:24:37;;;;;;;6.93;6.20;;;24.80;99.90;;;;;;5069697;28;20473;-69
2022/07/23 00:27:05;;;;;;;6.47;5.90;;;24.70;99.90;;;;;;5070423;28;20841;-69
2022/07/23 00:29:32;;;;;;;7.97;6.07;;;24.70;99.90;;;;;;5070149;28;20455;-69
2022/07/23 00:31:59;;;;;;;7.60;5.60;;;24.60;99.90;;;;;;5069671;28;20485;-68
2022/07/23 00:34:26;;;;;;;6.77;6.17;;;24.70;99.90;;;;;;5069166;28;20447;-69
2022/07/23 00:36:53;;;;;;;7.00;6.17;;;24.70;99.90;;;;;;5069170;28;20459;-67
2022/07/23 00:39:20;;;;;;;6.10;5.50;;;24.60;99.90;;;;;;5069632;28;20544;-69
2022/07/23 00:41:47;;;;;;;7.10;6.47;;;24.60;99.90;;;;;;5069467;28;20545;-68
2022/07/23 00:44:23;;;;;;;7.00;6.30;;;24.60;99.90;;;;;;5069556;28;20457;-68
2022/07/23 00:46:53;;;;;;;6.70;5.73;;;24.60;99.90;;;;;;5070251;28;20451;-68
2022/07/23 00:49:21;;;;;;;6.30;5.70;;;24.50;99.90;;;;;;5069494;28;20455;-69
2022/07/23 00:51:49;;;;;;;6.13;5.53;;;24.50;99.90;;;;;;5069399;28;20466;-68
2022/07/23 00:54:16;;;;;;;6.40;5.80;;;24.40;99.90;;;;;;5068916;28;20971;-67
2022/07/23 00:56:44;;;;;;;6.23;5.63;;;24.10;99.90;;;;;;5067051;28;20482;-69
2022/07/23 00:59:11;;;;;;;6.70;6.00;;;23.70;99.90;;;;;;5067760;28;20542;-68
2022/07/23 01:01:40;;;;;;;6.47;5.87;;;23.50;99.90;;;;;;5060750;28;20439;-69
2022/07/23 01:04:07;;;;;;;7.70;5.30;;;23.50;99.90;;;;;;5062822;28;20466;-67
2022/07/23 01:06:36;;;;;;;7.20;6.50;;;23.50;99.90;;;;;;5070564;28;20450;-68
2022/07/23 01:09:04;;;;;;;6.23;5.60;;;23.50;99.90;;;;;;5071250;28;20941;-68
2022/07/23 01:11:32;;;;;;;7.00;6.30;;;23.60;99.90;;;;;;5070518;28;21222;-67
2022/07/23 01:13:59;;;;;;;6.37;5.10;;;23.60;99.90;;;;;;5071111;28;20443;-68
2022/07/23 01:16:26;;;;;;;5.93;5.37;;;23.60;99.90;;;;;;5070614;28;20471;-69
2022/07/23 01:18:54;;;;;;;6.47;5.23;;;23.60;99.90;;;;;;5071020;28;20577;-68
2022/07/23 01:21:22;;;;;;;6.00;5.50;;;23.60;99.90;;;;;;5070197;28;20945;-68
2022/07/23 01:23:50;;;;;;;8.07;5.80;;;23.60;99.90;;;;;;5071071;28;20483;-66
2022/07/23 01:26:17;;;;;;;7.17;5.90;;;23.60;99.90;;;;;;5065980;28;20870;-68
2022/07/23 01:28:44;;;;;;;6.60;6.00;;;23.60;99.90;;;;;;5067062;28;20475;-68
2022/07/23 01:31:11;;;;;;;6.67;6.07;;;23.50;99.90;;;;;;5063313;28;20447;-68
2022/07/23 01:33:37;;;;;;;6.23;5.60;;;23.50;99.90;;;;;;5070884;28;20446;-68
2022/07/23 01:36:05;;;;;;;5.53;5.03;;;23.50;99.90;;;;;;5070383;28;20474;-67
2022/07/23 01:38:31;;;;;;;6.30;5.80;;;23.40;99.90;;;;;;5070710;28;21087;-68
2022/07/23 01:41:00;;;;;;;6.10;5.53;;;23.40;99.90;;;;;;5069862;28;20457;-68
2022/07/23 01:43:26;;;;;;;6.73;6.13;;;23.40;99.90;;;;;;5070531;28;20446;-66
2022/07/23 01:45:53;;;;;;;6.37;5.80;;;23.40;99.90;;;;;;5069965;28;20471;-69
2022/07/23 01:48:20;;;;;;;5.80;5.30;;;23.30;99.90;;;;;;5070622;28;20450;-67
2022/07/23 01:50:48;;;;;;;5.80;5.30;;;23.30;99.90;;;;;;5069870;28;20458;-68
2022/07/23 01:53:15;;;;;;;7.57;6.23;;;23.20;99.90;;;;;;5070421;28;20443;-68
2022/07/23 01:55:42;;;;;;;6.70;5.67;;;23.20;99.90;;;;;;5070006;28;20980;-68
2022/07/23 01:58:11;;;;;;;6.10;5.50;;;23.20;99.90;;;;;;5070380;28;20486;-67
2022/07/23 02:00:37;;;;;;;6.47;5.87;;;23.10;99.90;;;;;;5069911;28;20453;-67
2022/07/23 02:03:04;;;;;;;6.80;6.10;;;23.10;99.90;;;;;;5070608;28;20937;-68
2022/07/23 02:05:31;;;;;;;6.60;6.00;;;23.00;99.90;;;;;;5070361;28;20469;-65
2022/07/23 02:07:58;;;;;;;6.70;6.10;;;22.90;99.90;;;;;;5070498;28;20461;-68
2022/07/23 02:10:25;;;;;;;7.00;5.63;;;22.80;99.90;;;;;;5069566;28;20443;-68
2022/07/23 02:12:52;;;;;;;6.37;5.77;;;22.70;99.90;;;;;;5070342;28;20465;-68
2022/07/23 02:15:20;;;;;;;6.07;5.20;;;22.60;99.90;;;;;;5069942;28;20478;-67
2022/07/23 02:17:47;;;;;;;5.80;5.30;;;22.60;99.90;;;;;;5069927;28;20854;-66
2022/07/23 02:20:14;;;;;;;6.33;5.83;;;22.60;99.90;;;;;;5069369;28;20881;-67
2022/07/23 02:22:41;;;;;;;6.10;5.50;;;22.60;99.90;;;;;;5069818;28;20455;-68
2022/07/23 02:25:09;;;;;;;6.20;5.70;;;22.60;99.90;;;;;;5069597;28;20905;-67
2022/07/23 02:27:36;;;;;;;7.00;5.67;;;22.60;99.90;;;;;;5069829;28;20449;-67
2022/07/23 02:30:04;;;;;;;6.60;5.63;;;22.50;99.90;;;;;;5069160;28;20443;-68
2022/07/23 02:32:32;;;;;;;6.70;6.10;;;22.50;99.90;;;;;;5069733;28;20447;-69
2022/07/23 02:34:59;;;;;;;7.90;6.20;;;22.40;99.90;;;;;;5069309;28;20463;-68
2022/07/23 02:37:26;;;;;;;7.27;5.87;;;22.40;99.90;;;;;;5069771;28;20967;-67
2022/07/23 02:39:52;;;;;;;6.53;5.93;;;22.30;99.90;;;;;;5068953;28;20442;-67
2022/07/23 02:42:19;;;;;;;7.43;6.33;;;22.20;99.90;;;;;;5069735;28;20443;-68
2022/07/23 02:44:46;;;;;;;6.20;5.60;;;22.20;99.90;;;;;;5069195;28;20977;-68
2022/07/23 02:47:13;;;;;;;6.53;5.93;;;22.10;99.90;;;;;;5069700;28;20475;-68
2022/07/23 02:49:41;;;;;;;6.40;5.80;;;22.00;99.90;;;;;;5069374;28;20960;-68
2022/07/23 02:52:10;;;;;;;6.67;6.07;;;22.00;99.90;;;;;;5068779;28;20447;-68
2022/07/23 02:54:36;;;;;;;6.97;6.30;;;22.10;99.90;;;;;;5068987;28;20881;-68
2022/07/23 02:57:04;;;;;;;6.97;6.00;;;22.00;99.90;;;;;;5069663;28;20451;-68
2022/07/23 02:59:31;;;;;;;7.07;6.47;;;22.00;99.90;;;;;;5070670;28;20478;-66
2022/07/23 03:01:57;;;;;;;6.50;5.80;;;22.00;99.90;;;;;;5075403;28;20461;-68
2022/07/23 03:04:24;;;;;;;6.90;5.70;;;22.10;99.90;;;;;;5075711;28;20806;-68
2022/07/23 03:06:53;;;;;;;6.60;6.00;;;22.10;99.90;;;;;;5075897;28;20446;-68
2022/07/23 03:09:19;;;;;;;6.53;5.93;;;22.10;99.90;;;;;;5076351;28;20458;-68
2022/07/23 03:11:46;;;;;;;8.20;6.60;;;22.10;99.90;;;;;;5075385;28;20859;-70
2022/07/23 03:14:13;;;;;;;6.90;6.13;;;22.10;99.90;;;;;;5076171;28;20455;-69
2022/07/23 03:16:40;;;;;;;8.40;6.17;;;22.10;99.90;;;;;;5076117;28;20443;-69
2022/07/23 03:19:07;;;;;;;6.40;5.80;;;22.10;99.90;;;;;;5076283;28;21009;-69
2022/07/23 03:21:34;;;;;;;6.40;5.70;;;22.10;99.90;;;;;;5075219;28;20443;-69
2022/07/23 03:24:02;;;;;;;6.80;6.20;;;22.10;99.90;;;;;;5076138;28;20442;-74
2022/07/23 03:26:29;;;;;;;7.07;5.93;;;22.00;99.90;;;;;;5075657;28;20494;-69
2022/07/23 03:28:56;;;;;;;6.80;6.20;;;22.10;99.90;;;;;;5076124;28;20445;-69
2022/07/23 03:31:22;;;;;;;7.67;6.43;;;22.10;99.90;;;;;;5075191;28;20443;-69
2022/07/23 03:33:49;;;;;;;6.63;5.67;;;22.00;99.90;;;;;;5075767;28;20453;-69
2022/07/23 03:36:16;;;;;;;7.30;6.60;;;22.00;99.90;;;;;;5075280;28;20563;-69
2022/07/23 03:38:43;;;;;;;7.13;6.43;;;22.00;99.90;;;;;;5075602;28;20490;-68
2022/07/23 03:41:11;;;;;;;5.97;5.47;;;22.00;99.90;;;;;;5075148;28;20449;-69
2022/07/23 03:43:38;;;;;;;6.63;5.90;;;21.90;99.90;;;;;;5075481;28;20839;-69
2022/07/23 03:46:06;;;;;;;6.73;6.03;;;21.90;99.90;;;;;;5075306;28;20490;-69
2022/07/23 03:48:33;;;;;;;6.97;6.27;;;21.90;99.90;;;;;;5075652;28;20952;-68
2022/07/23 03:51:00;;;;;;;9.17;6.17;;;21.90;99.90;;;;;;5074939;28;20447;-68
2022/07/23 03:53:26;;;;;;;6.77;6.17;;;21.90;99.90;;;;;;5075926;28;20457;-69
2022/07/23 03:55:53;;;;;;;6.70;6.10;;;21.90;99.90;;;;;;5075384;28;20467;-68
2022/07/23 03:58:21;;;;;;;6.70;6.10;;;21.90;99.90;;;;;;5075634;28;20842;-69
2022/07/23 04:00:48;;;;;;;6.90;6.30;;;21.90;99.90;;;;;;5074909;28;20451;-70
2022/07/23 04:03:15;;;;;;;6.30;5.70;;;21.90;99.90;;;;;;5075598;28;20443;-69
2022/07/23 04:05:42;;;;;;;6.63;6.03;;;21.90;99.90;;;;;;5075326;28;20474;-68
2022/07/23 04:08:09;;;;;;;7.40;5.93;;;21.90;99.90;;;;;;5075789;28;20446;-69
2022/07/23 04:10:36;;;;;;;6.63;5.73;;;21.90;99.90;;;;;;5074595;28;20462;-68
2022/07/23 04:13:02;;;;;;;7.03;6.23;;;21.80;99.90;;;;;;5071157;28;20457;-68
2022/07/23 04:15:30;;;;;;;6.37;5.63;;;21.90;99.90;;;;;;5071824;28;20470;-70
2022/07/23 04:17:57;;;;;;;7.03;6.20;;;21.90;99.90;;;;;;5072180;28;20933;-69
2022/07/23 04:20:24;;;;;;;7.50;6.80;;;21.90;99.90;;;;;;5071529;28;20832;-68
2022/07/23 04:22:51;;;;;;;7.20;6.50;;;21.90;99.90;;;;;;5072205;28;20937;-67
2022/07/23 04:25:18;;;;;;;6.27;5.77;;;21.90;99.90;;;;;;5071741;28;20467;-68
2022/07/23 04:27:44;;;;;;;6.80;6.20;;;22.00;99.90;;;;;;5072188;28;20447;-67
2022/07/23 04:30:12;;;;;;;7.17;6.50;;;22.00;99.90;;;;;;5071143;28;20467;-69
2022/07/23 04:32:40;;;;;;;6.47;5.93;;;22.00;99.90;;;;;;5072390;28;20447;-67
2022/07/23 04:35:07;;;;;;;6.30;5.80;;;22.10;99.90;;;;;;5071795;28;20471;-68
2022/07/23 04:37:34;;;;;;;6.80;6.20;;;22.10;99.90;;;;;;5072016;28;20458;-69
2022/07/23 04:40:00;;;;;;;7.87;7.10;;;22.10;99.90;;;;;;5071305;28;20485;-68
2022/07/23 04:42:27;;;;;;;6.87;6.17;;;22.20;99.90;;;;;;5072200;28;20458;-67
2022/07/23 04:44:54;;;;;;;8.30;7.20;;;22.20;99.90;;;;;;5071638;28;20466;-68
2022/07/23 04:47:21;;;;;;;6.83;6.13;;;22.30;99.90;;;;;;5071058;28;20451;-68
2022/07/23 04:49:49;;;;;;;7.10;6.50;;;22.30;99.90;;;;;;5069589;28;20466;-67
2022/07/23 04:52:16;;;;;;;7.20;6.50;;;22.40;99.90;;;;;;5068070;28;20446;-67
2022/07/23 04:54:42;;;;;;;7.80;7.10;;;22.40;99.90;;;;;;5071182;28;20520;-68
2022/07/23 04:57:09;;;;;;;7.23;6.63;;;22.40;99.90;;;;;;5071431;28;20443;-67
2022/07/23 04:59:36;;;;;;;8.97;7.13;;;22.50;99.90;;;;;;5071531;28;20489;-67
2022/07/23 05:02:03;;;;;;;7.47;6.73;;;22.60;99.90;;;;;;5071157;28;20443;-68
2022/07/23 05:04:31;;;;;;;6.70;6.10;;;22.60;99.90;;;;;;5071210;28;20466;-68
2022/07/23 05:06:59;;;;;;;7.63;6.90;;;22.70;99.90;;;;;;5071534;28;20821;-68
2022/07/23 05:09:26;;;;;;;8.47;7.60;;;22.70;99.90;;;;;;5071220;28;20454;-68
2022/07/23 05:11:53;;;;;;;8.40;6.77;;;22.70;99.90;;;;;;5070557;28;20979;-68
2022/07/23 05:14:20;;;;;;;7.30;6.63;;;22.60;99.90;;;;;;5070712;28;21009;-67
2022/07/23 05:16:47;;;;;;;6.93;6.33;;;22.60;99.90;;;;;;5071624;28;20446;-69
2022/07/23 05:19:14;;;;;;;8.03;7.23;;;22.70;99.90;;;;;;5071186;28;20483;-67
2022/07/23 05:21:40;;;;;;;7.50;6.60;;;22.80;99.90;;;;;;5070428;28;20440;-68
2022/07/23 05:24:09;;;;;;;8.30;7.10;;;23.00;99.90;;;;;;5070701;28;20449;-69
2022/07/23 05:26:36;;;;;;;7.50;6.70;;;23.10;99.90;;;;;;5070855;28;20446;-69
2022/07/23 05:29:03;;;;;;;7.07;6.47;;;23.20;99.90;;;;;;5071052;28;20439;-68
2022/07/23 05:31:29;;;;;;;9.00;6.90;;;23.30;99.90;;;;;;5070296;28;20457;-69
2022/07/23 05:33:56;;;;;;;7.20;6.50;;;23.30;99.90;;;;;;5070965;28;20521;-68
2022/07/23 05:36:23;;;;;;;7.77;7.00;;;23.30;99.90;;;;;;5070594;28;20550;-67
2022/07/23 05:38:50;;;;;;;7.50;6.80;;;23.30;99.90;;;;;;5070640;28;21099;-69
2022/07/23 05:41:18;;;;;;;7.90;6.77;;;23.30;99.90;;;;;;5069914;28;20570;-68
2022/07/23 05:43:45;;;;;;;7.90;6.73;;;23.40;99.90;;;;;;5070848;28;20435;-67
2022/07/23 05:46:12;;;;;;;6.97;6.37;;;23.60;99.90;;;;;;5070472;28;20487;-67
2022/07/23 05:48:38;;;;;;;7.27;6.67;;;23.80;99.90;;;;;;5070517;28;20949;-69
2022/07/23 05:51:06;;;;;;;6.80;6.10;;;24.00;99.90;;;;;;5069940;28;20540;-68
2022/07/23 05:53:33;;;;;;;7.93;7.10;;;24.20;99.90;;;;;;5070554;28;20497;-68
2022/07/23 05:56:00;;;;;;;7.00;6.40;;;24.40;99.90;;;;;;5070267;28;20463;-68
2022/07/23 05:58:28;;;;;;;7.40;6.63;;;24.30;99.90;;;;;;5070818;28;20443;-69
2022/07/23 06:00:55;;;;;;;7.20;6.60;;;24.40;99.90;;;;;;5069732;28;20441;-68
2022/07/23 06:03:22;;;;;;;7.77;7.07;;;24.60;99.90;;;;;;5070434;28;20481;-69
2022/07/23 06:05:49;;;;;;;8.13;7.33;;;24.60;99.90;;;;;;5069810;28;20471;-66
2022/07/23 06:08:16;;;;;;;7.07;6.43;;;24.60;99.90;;;;;;5070091;28;20439;-66
2022/07/23 06:10:42;;;;;;;9.10;8.23;;;24.50;99.90;;;;;;5069494;28;20435;-67
2022/07/23 06:13:09;;;;;;;7.53;6.83;;;24.30;99.90;;;;;;5070328;28;20439;-66
2022/07/23 06:15:38;;;;;;;7.50;6.80;;;24.10;99.90;;;;;;5069690;28;20450;-69
2022/07/23 06:18:05;;;;;;;8.40;7.60;;;23.90;99.90;;;;;;5070122;28;20449;-67
2022/07/23 06:20:31;;;;;;;9.57;8.67;;;23.70;99.90;;;;;;5069024;28;20479;-69
2022/07/23 06:22:58;;;;;;;7.60;6.90;;;23.70;99.90;;;;;;5069937;28;21277;-67
2022/07/23 06:25:25;;;;;;;8.63;6.97;;;23.60;99.90;;;;;;5069709;28;20459;-70
2022/07/23 06:27:52;;;;;;;8.70;7.80;;;23.50;99.90;;;;;;5070095;28;20483;-70
2022/07/23 06:30:19;;;;;;;8.00;7.20;;;23.40;99.90;;;;;;5069208;28;20752;-68
2022/07/23 06:32:49;;;;;;;7.67;6.97;;;23.40;99.90;;;;;;5069887;28;21112;-68
2022/07/23 06:35:16;;;;;;;7.20;6.57;;;23.40;99.90;;;;;;5068992;28;20463;-68
2022/07/23 06:37:43;;;;;;;8.00;7.30;;;23.60;99.90;;;;;;5072538;28;20447;-68
2022/07/23 06:40:12;;;;;;;8.30;7.50;;;23.90;99.90;;;;;;5069429;28;20478;-68
2022/07/23 06:42:39;;;;;;;7.90;7.10;;;24.20;99.90;;;;;;5069916;28;20446;-69
2022/07/23 06:45:08;;;;;;;8.23;7.30;;;24.40;99.90;;;;;;5069305;28;20467;-68
2022/07/23 06:47:35;;;;;;;7.00;6.37;;;24.50;99.90;;;;;;5069599;28;20443;-68
2022/07/23 06:50:04;;;;;;;8.60;7.77;;;24.40;99.90;;;;;;5068861;28;20439;-67
2022/07/23 06:52:31;;;;;;;8.20;7.50;;;24.40;99.90;;;;;;5069874;28;20960;-68
2022/07/23 06:54:57;;;;;;;9.07;8.17;;;24.30;99.90;;;;;;5069268;28;20455;-68
2022/07/23 06:57:25;;;;;;;8.03;7.23;;;24.20;99.90;;;;;;5069853;28;20809;-68
2022/07/23 06:59:52;;;;;;;8.23;7.53;;;24.20;99.90;;;;;;5068925;28;20524;-68
2022/07/23 07:02:19;;;;;;;9.33;8.37;;;24.00;99.90;;;;;;5069396;28;20462;-68
2022/07/23 07:04:46;;;;;;;8.80;8.00;;;23.60;99.90;;;;;;5069194;28;20859;-68
2022/07/23 07:07:14;;;;;;;8.13;7.33;;;23.40;99.90;;;;;;5069686;28;20443;-68
2022/07/23 07:09:41;;;;;;;8.77;7.87;;;23.20;99.90;;;;;;5069299;28;20442;-66
2022/07/23 07:12:08;;;;;;;9.30;7.80;;;23.10;99.90;;;;;;5069159;28;20529;-68
2022/07/23 07:14:35;;;;;;;10.30;8.73;;;23.10;99.90;;;;;;5069009;28;20463;-67
2022/07/23 07:17:02;;;;;;;9.07;8.20;;;22.90;99.90;;;;;;5069456;28;20454;-68
2022/07/23 07:19:28;;;;;;;8.40;7.70;;;22.80;99.90;;;;;;5069567;28;20847;-67
2022/07/23 07:21:55;;;;;;;8.53;7.67;;;22.80;99.90;;;;;;5069061;28;20443;-68
2022/07/23 07:24:23;;;;;;;8.90;7.83;;;22.80;99.90;;;;;;5069368;28;20451;-68
2022/07/23 07:26:50;;;;;;;8.40;7.70;;;22.70;99.90;;;;;;5069764;28;20454;-68
2022/07/23 07:29:17;;;;;;;8.43;7.63;;;22.50;99.90;;;;;;5069404;28;20435;-68
2022/07/23 07:31:44;;;;;;;8.50;7.40;;;22.40;99.90;;;;;;5068580;28;20561;-66
2022/07/23 07:34:11;;;;;;;8.27;7.47;;;22.30;99.90;;;;;;5069478;28;20443;-68
2022/07/23 07:36:38;;;;;;;8.60;7.80;;;22.20;99.90;;;;;;5069165;28;20486;-67
2022/07/23 07:39:05;;;;;;;8.60;7.80;;;22.10;99.90;;;;;;5069390;28;20523;-66
2022/07/23 07:41:33;;;;;;;8.90;8.10;;;22.00;99.90;;;;;;5068467;28;20466;-68
2022/07/23 07:44:00;;;;;;;8.83;8.07;;;21.70;99.90;;;;;;5069049;28;20439;-67
2022/07/23 07:46:27;;;;;;;9.63;8.73;;;21.40;99.90;;;;;;5070447;28;20835;-67
2022/07/23 07:48:54;;;;;;;10.03;9.23;;;21.30;99.90;;;;;;5072956;28;20955;-67
2022/07/23 07:51:21;;;;;;;9.00;8.20;;;21.40;99.90;;;;;;5072083;28;20435;-67
2022/07/23 07:53:48;;;;;;;8.80;8.00;;;21.60;99.90;;;;;;5073381;28;20447;-68
2022/07/23 07:56:15;;;;;;;9.90;8.93;;;21.90;99.90;;;;;;5072644;28;20459;-67
2022/07/23 07:58:43;;;;;;;8.67;7.87;;;22.10;99.90;;;;;;5072897;28;20572;-67
2022/07/23 08:01:10;;;;;;;9.90;9.00;;;22.20;99.90;;;;;;5071530;28;20935;-67
2022/07/23 08:03:36;;;;;;;8.27;7.53;;;22.40;99.90;;;;;;5073093;28;20196;-67
2022/07/23 08:06:03;;;;;;;9.47;8.47;;;22.40;99.90;;;;;;5072115;28;20467;-66
2022/07/23 08:08:30;;;;;;;8.97;8.17;;;22.40;99.90;;;;;;5072635;28;20447;-67
2022/07/23 08:10:57;;;;;;;12.40;9.10;;;22.50;99.90;;;;;;5071589;28;20439;-67
2022/07/23 08:13:24;;;;;;;8.67;7.93;;;22.50;99.90;;;;;;5072087;28;20458;-67
2022/07/23 08:15:53;;;;;;;8.17;7.40;;;22.70;99.90;;;;;;5071972;28;20463;-64
2022/07/23 08:18:20;;;;;;;9.47;8.67;;;22.90;99.90;;;;;;5072344;28;20435;-66
2022/07/23 08:20:47;;;;;;;8.67;7.90;;;23.40;99.90;;;;;;5069059;28;20511;-65
2022/07/23 08:23:14;;;;;;;8.43;7.50;;;23.90;99.90;;;;;;5066076;28;20443;-67
2022/07/23 08:25:43;;;;;;;7.90;7.20;;;24.20;99.90;;;;;;5071504;28;20469;-67
2022/07/23 08:28:12;;;;;;;9.70;8.80;;;24.30;99.90;;;;;;5072368;28;20466;-67
2022/07/23 08:30:40;;;;;;;9.93;7.67;;;24.20;99.90;;;;;;5071465;28;20499;-67
2022/07/23 08:33:12;;;;;;;9.70;8.20;;;24.20;99.90;;;;;;5072315;28;20447;-68
2022/07/23 08:35:41;;;;;;;8.87;8.17;;;24.10;99.90;;;;;;5072070;28;20513;-67
2022/07/23 08:38:10;;;;;;;8.73;7.83;;;24.00;99.90;;;;;;5072272;28;20442;-69
2022/07/23 08:40:39;;;;;;;9.43;8.53;;;24.20;99.90;;;;;;5071534;28;20485;-69
2022/07/23 08:43:08;;;;;;;8.13;7.33;;;24.70;99.90;;;;;;5071708;28;20557;-68
2022/07/23 08:45:37;;;;;;;8.70;7.90;;;25.10;99.90;;;;;;5071719;28;20467;-69
2022/07/23 08:48:06;;;;;;;10.20;8.10;;;25.80;99.90;;;;;;5072215;28;20436;-69
2022/07/23 08:50:36;;;;;;;7.40;6.70;;;26.30;99.90;;;;;;5070848;28;20439;-68
2022/07/23 08:53:07;;;;;;;7.90;7.20;;;26.60;99.90;;;;;;5071875;28;20508;-68
2022/07/23 08:55:33;;;;;;;7.93;7.03;;;27.00;99.90;;;;;;5071467;28;20466;-69
2022/07/23 08:58:00;;;;;;;7.57;6.97;;;27.20;99.90;;;;;;5071337;28;20450;-69
2022/07/23 09:00:27;;;;;;;8.30;7.00;;;27.40;99.90;;;;;;5070840;28;20479;-69
2022/07/23 09:02:54;;;;;;;7.60;7.00;;;27.60;99.90;;;;;;5071651;28;20440;-70
2022/07/23 09:05:22;;;;;;;7.47;6.77;;;27.60;99.90;;;;;;5071012;28;20463;-70
2022/07/23 09:08:10;;;;;;;6.87;6.17;;;27.50;99.90;;;;;;5071544;28;20451;-69
2022/07/23 09:10:55;;;;;;;7.60;6.80;;;27.40;99.90;;;;;;5070616;28;20879;-70
2022/07/23 09:13:32;;;;;;;6.50;5.90;;;27.60;99.90;;;;;;5071268;28;20465;-70
2022/07/23 09:16:00;;;;;;;7.00;6.30;;;28.10;99.90;;;;;;5067547;28;20472;-70
2022/07/23 09:18:38;;;;;;;6.70;6.10;;;28.20;99.90;;;;;;5066817;28;20482;-70
2022/07/23 09:21:09;;;;;;;6.17;5.67;;;28.30;99.70;;;;;;5066894;28;20482;-71
2022/07/23 09:23:41;;;;;;;6.00;5.40;;;28.10;99.40;;;;;;5070122;28;20530;-70
2022/07/23 09:26:23;;;;;;;6.87;6.27;;;28.10;98.40;;;;;;5063910;28;20518;-68
2022/07/23 09:28:58;;;;;;;7.20;5.90;;;28.40;97.30;;;;;;5057363;28;20553;-70
2022/07/23 09:31:26;;;;;;;7.10;6.50;;;28.20;96.50;;;;;;5057785;28;20802;-69
2022/07/23 09:34:07;;;;;;;8.00;7.27;;;27.60;97.70;;;;;;5058109;28;20458;-70
2022/07/23 09:36:33;;;;;;;7.20;6.57;;;27.10;98.90;;;;;;5059952;28;20475;-69
2022/07/23 09:39:02;;;;;;;6.50;5.90;;;26.90;99.90;;;;;;5063574;28;20455;-69
2022/07/23 09:41:36;;;;;;;6.90;6.30;;;26.90;99.90;;;;;;5048700;28;20481;-68
2022/07/23 09:44:12;;;;;;;7.23;6.60;;;27.20;99.70;;;;;;5062272;28;20483;-68
2022/07/23 09:46:40;;;;;;;7.47;6.50;;;27.60;98.10;;;;;;5051040;28;20453;-67
2022/07/23 09:49:16;;;;;;;7.50;6.90;;;27.40;97.60;;;;;;5050321;28;20447;-68
2022/07/23 09:51:51;;;;;;;7.83;7.00;;;27.50;97.00;;;;;;5051211;28;20454;-69
2022/07/23 09:54:26;;;;;;;7.70;6.40;;;27.60;97.30;;;;;;5050492;28;21014;-69
2022/07/23 09:56:54;;;;;;;6.47;5.90;;;27.90;97.20;;;;;;5047594;28;20435;-70
2022/07/23 09:59:25;;;;;;;7.07;6.47;;;28.20;96.60;;;;;;5048988;28;20455;-69
2022/07/23 10:01:54;;;;;;;8.30;6.57;;;28.20;95.90;;;;;;5050300;28;20483;-70
2022/07/23 10:04:22;;;;;;;6.33;5.73;;;27.90;96.10;;;;;;5052390;28;20451;-70
2022/07/23 10:06:52;;;;;;;7.20;6.60;;;28.30;96.10;;;;;;5056457;28;20457;-70
2022/07/23 10:09:25;;;;;;;7.40;6.37;;;29.10;94.70;;;;;;5053705;28;20455;-70
2022/07/23 10:11:58;;;;;;;6.97;6.37;;;29.60;93.60;;;;;;5057270;28;21156;-70
2022/07/23 10:14:27;;;;;;;6.50;5.90;;;29.90;92.40;;;;;;5050756;28;20961;-70
2022/07/23 10:16:54;;;;;;;6.70;6.10;;;30.00;92.50;;;;;;5050481;28;20933;-69
2022/07/23 10:19:21;;;;;;;6.83;6.23;;;29.90;92.20;;;;;;5048647;28;20486;-70
2022/07/23 10:21:51;;;;;;;7.10;6.47;;;29.60;92.00;;;;;;5047455;28;20486;-69
2022/07/23 10:24:29;;;;;;;7.03;6.43;;;29.80;92.50;;;;;;5045920;28;21931;-69
2022/07/23 10:27:10;;;;;;;7.67;6.97;;;30.00;92.10;;;;;;5051992;28;20448;-69
2022/07/23 10:29:46;;;;;;;7.20;6.17;;;30.60;90.80;;;;;;5058044;28;20458;-69
2022/07/23 10:32:26;;;;;;;7.37;6.67;;;30.80;90.10;;;;;;5049482;28;20445;-68
2022/07/23 10:34:59;;;;;;;7.07;6.47;;;31.30;88.40;;;;;;5055151;28;20482;-69
2022/07/23 10:37:32;;;;;;;6.17;5.43;;;31.20;86.00;;;;;;5055949;28;20510;-66
2022/07/23 10:40:17;;;;;;;7.40;6.63;;;30.80;86.10;;;;;;5053862;28;20969;-66
2022/07/23 10:42:44;;;;;;;6.70;6.10;;;31.30;86.90;;;;;;5061185;28;20837;-69
2022/07/23 10:45:26;;;;;;;6.43;5.93;;;31.20;86.50;;;;;;5063451;28;20468;-68
2022/07/23 10:47:53;;;;;;;7.63;7.03;;;31.10;90.30;;;;;;5064826;28;20459;-67
2022/07/23 10:50:23;;;;;;;7.30;6.60;;;31.60;86.10;;;;;;5062500;28;20455;-67
2022/07/23 10:53:13;;;;;;;6.77;6.27;;;31.70;84.90;;;;;;5061198;28;20456;-67
2022/07/23 10:55:44;;;;;;;7.87;7.07;;;31.30;87.50;;;;;;5048420;28;20474;-67
2022/07/23 10:58:11;;;;;;;6.90;6.30;;;31.10;87.60;;;;;;5057315;28;20458;-68
2022/07/23 11:00:38;;;;;;;6.20;5.70;;;31.00;90.40;;;;;;5059765;28;21331;-68
2022/07/23 11:03:26;;;;;;;6.40;5.90;;;31.10;86.00;;;;;;5069177;28;20455;-67
2022/07/23 11:05:53;;;;;;;6.67;6.07;;;31.40;85.30;;;;;;5059988;28;20956;-65
2022/07/23 11:08:21;;;;;;;7.10;6.50;;;31.30;82.10;;;;;;5060642;28;20446;-67
2022/07/23 11:10:52;;;;;;;6.67;6.13;;;30.80;82.40;;;;;;5066337;28;20455;-67
2022/07/23 11:13:40;;;;;;;6.53;6.00;;;30.60;83.60;;;;;;5067908;28;20957;-68
2022/07/23 11:16:15;;;;;;;6.47;5.97;;;30.80;84.60;;;;;;5058119;28;20503;-68
2022/07/23 11:19:07;;;;;;;6.20;5.70;;;30.90;86.50;;;;;;5058825;28;20455;-69
2022/07/23 11:22:01;;;;;;;6.07;5.50;;;31.30;84.40;;;;;;5065396;28;20578;-67
2022/07/23 11:24:28;;;;;;;7.17;6.50;;;31.50;83.30;;;;;;5065042;28;20458;-67
2022/07/23 11:27:01;;;;;;;6.57;6.07;;;31.40;82.80;;;;;;5061074;28;20451;-67
2022/07/23 11:29:42;;;;;;;6.60;6.00;;;31.50;81.40;;;;;;5070392;28;20455;-67
2022/07/23 11:32:20;;;;;;;6.23;5.73;;;31.40;80.10;;;;;;5067357;28;20496;-68
2022/07/23 11:34:49;;;;;;;6.80;6.20;;;30.90;82.60;;;;;;5066346;28;20833;-67
2022/07/23 11:37:39;;;;;;;6.50;5.90;;;30.60;84.50;;;;;;5068111;28;20464;-68
2022/07/23 11:40:09;;;;;;;6.90;5.97;;;30.30;85.60;;;;;;5066911;28;20451;-67
2022/07/23 11:42:39;;;;;;;6.77;5.73;;;30.30;84.60;;;;;;5068638;28;20474;-67
2022/07/23 11:45:08;;;;;;;6.80;6.20;;;30.50;84.70;;;;;;5069013;28;20495;-67
2022/07/23 11:47:35;;;;;;;7.00;6.40;;;30.60;85.50;;;;;;5073009;28;20443;-68
2022/07/23 11:50:04;;;;;;;6.73;6.20;;;30.80;82.10;;;;;;5071622;28;21268;-67
2022/07/23 11:52:31;;;;;;;8.57;5.87;;;30.50;83.60;;;;;;5069739;28;20457;-68
2022/07/23 11:55:00;;;;;;;7.50;6.20;;;30.20;84.50;;;;;;5062119;28;20466;-68
2022/07/23 11:57:29;;;;;;;7.77;7.00;;;29.80;86.60;;;;;;5072094;28;20450;-67
2022/07/23 11:59:59;;;;;;;7.40;6.80;;;29.60;85.90;;;;;;5068226;28;20443;-68
2022/07/23 12:02:26;;;;;;;7.23;6.60;;;29.70;85.20;;;;;;5069193;28;20478;-68
2022/07/23 12:04:54;;;;;;;7.73;6.30;;;30.00;85.60;;;;;;5069589;28;20536;-68
2022/07/23 12:07:29;;;;;;;7.07;6.47;;;30.20;86.80;;;;;;5069398;28;20836;-67
2022/07/23 12:09:57;;;;;;;7.37;6.67;;;30.70;85.30;;;;;;5068502;28;20537;-68
2022/07/23 12:12:24;;;;;;;7.67;7.00;;;30.90;85.00;;;;;;5069316;28;20963;-67
2022/07/23 12:14:53;;;;;;;8.00;7.40;;;31.30;84.30;;;;;;5062979;28;20467;-67
2022/07/23 12:17:22;;;;;;;7.27;6.60;;;31.10;83.80;;;;;;5063437;28;20480;-68
2022/07/23 12:19:49;;;;;;;7.23;6.63;;;30.70;84.60;;;;;;5063974;28;20443;-68
2022/07/23 12:22:16;;;;;;;7.57;6.40;;;30.70;84.00;;;;;;5069700;28;20493;-68
2022/07/23 12:25:00;;;;;;;8.13;7.33;;;30.60;82.20;;;;;;5058635;28;20474;-67
2022/07/23 12:27:27;;;;;;;7.77;7.07;;;30.30;82.20;;;;;;5064906;28;20944;-68
2022/07/23 12:29:54;;;;;;;7.40;6.70;;;30.80;83.10;;;;;;5070622;28;20475;-67
2022/07/23 12:32:24;;;;;;;7.20;6.60;;;31.40;81.90;;;;;;5059507;28;20447;-66
2022/07/23 12:35:02;;;;;;;7.57;6.87;;;31.70;81.30;;;;;;5061984;28;20472;-68
2022/07/23 12:37:30;;;;;;;7.37;6.77;;;31.60;79.60;;;;;;5065676;28;20446;-67
2022/07/23 12:39:57;;;;;;;8.27;7.47;;;31.50;81.50;;;;;;5056356;28;20440;-67
2022/07/23 12:42:24;;;;;;;7.57;6.87;;;31.80;79.00;;;;;;5062621;28;20476;-67
2022/07/23 12:45:08;;;;;;;7.57;6.97;;;31.60;80.40;;;;;;5062834;28;20479;-67
2022/07/23 12:48:05;;;;;;;7.03;6.43;;;31.70;80.20;;;;;;5061311;28;20447;-67
2022/07/23 12:50:38;;;;;;;7.50;6.77;;;31.80;79.50;;;;;;5052824;28;20462;-67
2022/07/23 12:53:07;;;;;;;7.87;7.23;;;31.70;80.20;;;;;;5062914;28;20514;-66